createdAt,value
2019-03-03T00:00:41.421Z,70.80
2019-03-03T00:03:09.938Z,71.30
2019-03-03T00:05:38.386Z,71.40
2019-03-03T00:08:06.859Z,71.50
2019-03-03T00:10:35.939Z,71.50
2019-03-03T00:13:04.669Z,70.70
2019-03-03T00:15:33.193Z,70.90
2019-03-03T00:18:01.850Z,70.90
2019-03-03T00:20:30.350Z,71.60
2019-03-03T00:22:59.167Z,71.70
2019-03-03T00:25:28.034Z,71.20
2019-03-03T00:27:56.485Z,70.50
2019-03-03T00:30:25.089Z,71.30
2019-03-03T00:32:53.539Z,70.50
2019-03-03T00:35:22.062Z,69.90
2019-03-03T00:37:57.918Z,69.50
2019-03-03T00:40:30.764Z,69.00
2019-03-03T00:43:03.448Z,70.20
2019-03-03T00:45:50.263Z,70.50
2019-03-03T00:48:36.766Z,70.70
2019-03-03T00:51:06.859Z,70.10
2019-03-03T00:53:37.332Z,70.50
2019-03-03T00:56:20.054Z,70.50
2019-03-03T00:58:50.147Z,70.40
2019-03-03T01:04:11.509Z,70.90
2019-03-03T01:06:44.893Z,71.30
2019-03-03T01:09:33.275Z,71.10
2019-03-03T01:12:15.451Z,71.00
2019-03-03T01:15:00.845Z,71.20
2019-03-03T01:17:36.636Z,70.80
2019-03-03T01:20:17.782Z,71.00
2019-03-03T01:22:53.793Z,70.30
2019-03-03T01:25:22.307Z,70.60
2019-03-03T01:27:50.763Z,69.80
2019-03-03T01:30:19.243Z,69.40
2019-03-03T01:32:47.758Z,69.90
2019-03-03T01:35:16.203Z,69.10
2019-03-03T01:37:44.746Z,69.10
2019-03-03T01:40:13.709Z,69.40
2019-03-03T01:42:42.157Z,69.30
2019-03-03T01:45:13.057Z,69.50
2019-03-03T01:47:41.512Z,69.90
2019-03-03T01:50:13.635Z,69.80
2019-03-03T01:52:42.451Z,69.00
2019-03-03T01:55:12.335Z,68.70
2019-03-03T01:57:41.174Z,68.60
2019-03-03T02:00:21.311Z,69.00
2019-03-03T02:02:50.020Z,68.90
2019-03-03T02:05:19.175Z,69.20
2019-03-03T02:07:48.182Z,68.70
2019-03-03T02:10:19.336Z,69.50
2019-03-03T02:12:48.222Z,68.90
2019-03-03T02:15:17.110Z,69.10
2019-03-03T02:17:45.722Z,69.10
2019-03-03T02:20:14.241Z,69.20
2019-03-03T02:22:42.705Z,69.20
2019-03-03T02:25:13.086Z,68.50
2019-03-03T02:27:41.798Z,68.60
2019-03-03T02:30:18.749Z,69.40
2019-03-03T02:32:47.434Z,68.70
2019-03-03T02:35:16.733Z,68.40
2019-03-03T02:37:45.847Z,68.70
2019-03-03T02:40:19.091Z,68.90
2019-03-03T02:42:47.786Z,68.20
2019-03-03T02:45:16.870Z,67.60
2019-03-03T02:47:45.408Z,67.70
2019-03-03T02:50:15.727Z,67.20
2019-03-03T02:52:44.326Z,68.20
2019-03-03T02:55:15.575Z,67.30
2019-03-03T02:57:44.021Z,66.90
2019-03-03T03:00:18.333Z,67.30
2019-03-03T03:02:48.503Z,66.80
2019-03-03T03:05:20.643Z,67.20
2019-03-03T03:07:50.829Z,67.80
2019-03-03T03:10:24.052Z,68.80
2019-03-03T03:12:54.234Z,68.10
2019-03-03T03:15:41.201Z,67.50
2019-03-03T03:18:28.078Z,67.00
2019-03-03T03:21:01.031Z,66.90
2019-03-03T03:23:34.118Z,66.50
2019-03-03T03:26:13.411Z,67.30
2019-03-03T03:28:49.447Z,68.10
2019-03-03T03:31:25.378Z,66.90
2019-03-03T03:34:01.330Z,66.20
2019-03-03T03:36:40.489Z,66.20
2019-03-03T03:39:20.238Z,67.10
2019-03-03T03:41:59.886Z,67.90
2019-03-03T03:44:46.129Z,68.20
2019-03-03T03:47:19.477Z,67.20
2019-03-03T03:49:49.555Z,66.70
2019-03-03T03:52:19.670Z,67.40
2019-03-03T03:55:08.045Z,66.20
2019-03-03T03:57:44.452Z,66.40
2019-03-03T04:00:17.732Z,66.50
2019-03-03T04:03:04.279Z,66.00
2019-03-03T04:05:43.310Z,65.00
2019-03-03T04:08:19.150Z,64.90
2019-03-03T04:10:58.283Z,63.90
2019-03-03T04:13:33.897Z,64.30
2019-03-03T04:16:07.284Z,64.70
2019-03-03T04:18:40.074Z,65.00
2019-03-03T04:21:13.215Z,64.90
2019-03-03T04:23:49.534Z,65.10
2019-03-03T04:26:28.698Z,65.00
2019-03-03T04:28:58.813Z,65.60
2019-03-03T04:31:28.962Z,66.10
2019-03-03T04:33:59.065Z,65.80
2019-03-03T04:36:47.438Z,65.30
2019-03-03T04:39:33.249Z,64.90
2019-03-03T04:42:03.330Z,65.50
2019-03-03T04:44:33.414Z,66.50
2019-03-03T04:47:18.791Z,66.60
2019-03-03T04:49:48.876Z,67.30
2019-03-03T04:52:35.126Z,65.10
2019-03-03T04:55:24.307Z,65.80
2019-03-03T04:57:57.193Z,65.90
2019-03-03T05:00:27.309Z,65.40
2019-03-03T05:03:13.879Z,64.40
2019-03-03T05:05:44.053Z,65.40
2019-03-03T05:08:20.637Z,64.00
2019-03-03T05:11:09.253Z,64.40
2019-03-03T05:16:34.677Z,66.30
2019-03-03T05:19:05.066Z,66.90
2019-03-03T05:21:33.510Z,67.40
2019-03-03T05:24:01.988Z,67.00
2019-03-03T05:26:30.500Z,66.00
2019-03-03T05:28:58.942Z,66.30
2019-03-03T05:31:29.366Z,66.00
2019-03-03T05:33:57.602Z,65.60
2019-03-03T05:36:26.083Z,65.90
2019-03-03T05:38:54.947Z,65.10
2019-03-03T05:41:23.426Z,64.50
2019-03-03T05:43:51.872Z,64.60
2019-03-03T05:46:20.318Z,63.60
2019-03-03T05:48:48.795Z,64.00
2019-03-03T05:51:17.557Z,64.10
2019-03-03T05:53:46.018Z,64.70
2019-03-03T05:56:16.302Z,64.10
2019-03-03T05:58:44.943Z,64.00
2019-03-03T06:01:13.415Z,63.80
2019-03-03T06:03:41.858Z,63.50
2019-03-03T06:06:10.694Z,63.80
2019-03-03T06:08:39.499Z,63.00
2019-03-03T06:11:07.945Z,63.30
2019-03-03T06:13:36.414Z,63.20
2019-03-03T06:16:04.945Z,63.00
2019-03-03T06:18:33.708Z,63.60
2019-03-03T06:21:02.180Z,63.50
2019-03-03T06:23:30.695Z,63.90
2019-03-03T06:25:59.463Z,62.90
2019-03-03T06:28:27.933Z,63.70
2019-03-03T06:30:56.379Z,63.20
2019-03-03T06:33:25.108Z,63.20
2019-03-03T06:35:53.902Z,63.50
2019-03-03T06:38:22.345Z,64.50
2019-03-03T06:40:50.782Z,63.80
2019-03-03T06:43:19.254Z,63.40
2019-03-03T06:45:47.693Z,63.70
2019-03-03T06:48:16.137Z,63.60
2019-03-03T06:51:22.061Z,63.60
2019-03-03T06:53:50.539Z,64.10
2019-03-03T06:56:18.977Z,63.10
2019-03-03T06:58:47.418Z,63.50
2019-03-03T07:01:15.890Z,63.70
2019-03-03T07:03:44.342Z,63.20
2019-03-03T07:06:12.788Z,63.90
2019-03-03T07:08:41.262Z,63.60
2019-03-03T07:11:10.170Z,63.00
2019-03-03T07:13:38.725Z,62.20
2019-03-03T07:16:07.489Z,63.10
2019-03-03T07:18:35.931Z,62.30
2019-03-03T07:21:04.446Z,63.00
2019-03-03T07:23:32.936Z,63.00
2019-03-03T07:26:01.710Z,63.40
2019-03-03T07:28:30.159Z,63.70
2019-03-03T07:30:58.885Z,63.30
2019-03-03T07:33:28.985Z,63.30
2019-03-03T07:35:57.809Z,62.60
2019-03-03T07:38:26.324Z,62.90
2019-03-03T07:40:54.869Z,63.00
2019-03-03T07:43:23.313Z,62.60
2019-03-03T07:45:52.118Z,62.10
2019-03-03T07:48:20.582Z,61.30
2019-03-03T07:50:49.054Z,61.90
2019-03-03T07:53:17.497Z,61.30
2019-03-03T07:55:46.015Z,60.70
2019-03-03T07:58:14.860Z,60.50
2019-03-03T08:00:43.376Z,60.20
2019-03-03T08:03:12.222Z,60.80
2019-03-03T08:05:40.694Z,60.30
2019-03-03T08:08:09.140Z,60.50
2019-03-03T08:10:37.585Z,60.10
2019-03-03T08:13:09.142Z,60.90
2019-03-03T08:15:36.289Z,59.80
2019-03-03T08:18:04.761Z,60.50
2019-03-03T08:20:33.630Z,60.10
2019-03-03T08:23:02.137Z,60.10
2019-03-03T08:25:30.651Z,59.60
2019-03-03T08:27:59.207Z,59.10
2019-03-03T08:30:27.652Z,59.30
2019-03-03T08:32:56.458Z,59.30
2019-03-03T08:35:27.132Z,59.50
2019-03-03T08:37:55.653Z,58.90
2019-03-03T08:40:24.117Z,59.00
2019-03-03T08:43:06.448Z,58.60
2019-03-03T08:45:39.529Z,58.50
2019-03-03T08:48:18.756Z,58.50
2019-03-03T08:50:58.245Z,58.50
2019-03-03T08:53:45.105Z,58.90
2019-03-03T08:56:15.212Z,58.80
2019-03-03T08:58:47.910Z,58.20
2019-03-03T09:01:17.997Z,58.20
2019-03-03T09:03:50.609Z,57.80
2019-03-03T09:06:23.703Z,57.40
2019-03-03T09:09:09.073Z,58.00
2019-03-03T09:11:39.501Z,58.10
2019-03-03T09:14:18.366Z,56.70
2019-03-03T09:16:51.471Z,56.70
2019-03-03T09:19:21.561Z,57.00
2019-03-03T09:21:54.818Z,56.70
2019-03-03T09:24:33.880Z,56.10
2019-03-03T09:27:04.278Z,56.20
2019-03-03T09:29:46.686Z,56.70
2019-03-03T09:32:22.725Z,56.00
2019-03-03T09:35:01.847Z,55.80
2019-03-03T09:37:34.703Z,56.20
2019-03-03T09:40:09.810Z,54.70
2019-03-03T09:42:43.120Z,54.60
2019-03-03T09:45:16.586Z,55.20
2019-03-03T09:47:49.613Z,54.80
2019-03-03T09:50:19.777Z,54.20
2019-03-03T09:52:53.006Z,53.60
2019-03-03T09:55:26.181Z,53.40
2019-03-03T09:58:02.693Z,53.70
2019-03-03T10:00:35.943Z,53.00
2019-03-03T10:03:11.983Z,52.60
2019-03-03T10:05:53.697Z,52.10
2019-03-03T10:08:26.579Z,51.30
2019-03-03T10:11:08.824Z,51.20
2019-03-03T10:13:41.927Z,50.30
2019-03-03T10:16:28.214Z,50.10
2019-03-03T10:19:07.099Z,48.00
2019-03-03T10:21:38.897Z,45.80
2019-03-03T10:24:15.133Z,45.60
2019-03-03T10:27:01.843Z,44.70
2019-03-03T10:29:38.086Z,46.00
2019-03-03T10:32:08.271Z,45.70
2019-03-03T10:34:41.036Z,46.70
2019-03-03T10:37:14.578Z,44.50
2019-03-03T10:39:47.562Z,43.70
2019-03-03T10:42:20.783Z,44.80
2019-03-03T10:45:00.223Z,43.70
2019-03-03T10:47:42.614Z,43.40
2019-03-03T10:50:21.802Z,44.50
2019-03-03T10:52:57.689Z,42.10
2019-03-03T10:55:30.407Z,41.20
2019-03-03T10:58:17.499Z,42.30
2019-03-03T11:00:57.266Z,41.50
2019-03-03T11:03:39.151Z,40.40
2019-03-03T11:06:15.320Z,40.90
2019-03-03T11:08:51.530Z,40.70
2019-03-03T11:11:30.491Z,41.10
2019-03-03T11:14:19.327Z,40.80
2019-03-03T11:16:55.357Z,39.10
2019-03-03T11:19:34.022Z,38.30
2019-03-03T11:22:04.134Z,38.00
2019-03-03T11:24:43.782Z,39.80
2019-03-03T11:27:22.987Z,40.40
2019-03-03T11:30:05.174Z,38.40
2019-03-03T11:32:38.309Z,37.70
2019-03-03T11:35:25.347Z,37.50
2019-03-03T11:37:58.197Z,37.10
2019-03-03T11:40:31.354Z,39.10
2019-03-03T11:43:07.414Z,37.50
2019-03-03T11:45:54.475Z,38.00
2019-03-03T11:48:24.595Z,37.60
2019-03-03T11:50:57.142Z,38.70
2019-03-03T11:53:30.465Z,36.80
2019-03-03T11:56:03.242Z,36.60
2019-03-03T11:58:33.357Z,35.30
2019-03-03T12:01:19.972Z,36.30
2019-03-03T12:03:59.824Z,34.80
2019-03-03T12:06:46.892Z,35.30
2019-03-03T12:09:33.277Z,35.50
2019-03-03T12:12:21.740Z,34.40
2019-03-03T12:14:52.217Z,33.20
2019-03-03T12:17:22.397Z,32.30
2019-03-03T12:19:55.229Z,34.60
2019-03-03T12:22:36.929Z,34.40
2019-03-03T12:25:19.219Z,35.00
2019-03-03T12:28:05.942Z,34.90
2019-03-03T12:30:36.269Z,34.60
2019-03-03T12:33:24.489Z,34.00
2019-03-03T12:36:09.617Z,34.70
2019-03-03T12:38:49.033Z,33.50
2019-03-03T12:41:31.127Z,34.00
2019-03-03T12:44:19.690Z,34.80
2019-03-03T12:47:01.883Z,33.80
2019-03-03T12:49:32.008Z,32.60
2019-03-03T12:52:02.105Z,32.20
2019-03-03T12:54:41.221Z,33.30
2019-03-03T12:57:17.186Z,32.90
2019-03-03T13:00:05.603Z,31.80
2019-03-03T13:02:51.825Z,32.70
2019-03-03T13:05:21.926Z,31.20
2019-03-03T13:08:03.773Z,33.00
2019-03-03T13:10:50.275Z,29.80
2019-03-03T13:13:36.881Z,31.10
2019-03-03T13:16:12.600Z,32.00
2019-03-03T13:18:42.723Z,32.90
2019-03-03T13:21:29.958Z,32.20
2019-03-03T13:24:06.329Z,32.40
2019-03-03T13:26:42.253Z,32.20
2019-03-03T13:29:27.766Z,30.90
2019-03-03T13:32:00.834Z,32.10
2019-03-03T13:34:36.754Z,31.20
2019-03-03T13:37:06.845Z,31.00
2019-03-03T13:39:37.642Z,29.80
2019-03-03T13:42:10.667Z,31.30
2019-03-03T13:44:39.524Z,32.00
2019-03-03T13:47:08.072Z,32.40
2019-03-03T13:49:36.660Z,30.00
2019-03-03T13:52:05.573Z,31.30
2019-03-03T13:54:34.037Z,28.90
2019-03-03T13:57:02.631Z,29.40
2019-03-03T13:59:31.103Z,29.00
2019-03-03T14:01:59.551Z,26.90
2019-03-03T14:04:28.073Z,27.40
2019-03-03T14:06:56.994Z,27.20
2019-03-03T14:09:25.456Z,27.60
2019-03-03T14:11:53.968Z,27.60
2019-03-03T14:14:22.449Z,28.20
2019-03-03T14:16:50.893Z,29.40
2019-03-03T14:19:19.338Z,28.60
2019-03-03T14:21:47.981Z,31.90
2019-03-03T14:24:16.764Z,30.70
2019-03-03T14:26:45.214Z,29.20
2019-03-03T14:29:13.692Z,31.20
2019-03-03T14:31:42.497Z,31.40
2019-03-03T14:34:10.969Z,30.20
2019-03-03T14:36:39.416Z,29.20
2019-03-03T14:39:08.606Z,30.00
2019-03-03T14:41:37.449Z,28.70
2019-03-03T14:44:06.033Z,29.30
2019-03-03T14:46:34.575Z,29.90
2019-03-03T14:49:03.117Z,29.80
2019-03-03T14:51:31.561Z,31.30
2019-03-03T14:54:00.013Z,28.50
2019-03-03T14:56:28.485Z,29.60
2019-03-03T14:58:56.933Z,29.50
2019-03-03T15:01:25.453Z,29.50
2019-03-03T15:03:53.995Z,30.30
2019-03-03T15:06:24.674Z,29.70
2019-03-03T15:08:52.688Z,29.50
2019-03-03T15:11:21.161Z,28.80
2019-03-03T15:13:49.638Z,29.40
2019-03-03T15:16:18.097Z,29.60
2019-03-03T15:18:46.764Z,29.80
2019-03-03T15:21:24.543Z,31.90
2019-03-03T15:23:45.525Z,30.00
2019-03-03T15:26:14.325Z,30.60
2019-03-03T15:28:42.843Z,31.30
2019-03-03T15:31:11.366Z,31.70
2019-03-03T15:33:39.833Z,34.10
2019-03-03T15:36:08.351Z,30.40
2019-03-03T15:38:36.878Z,31.80
2019-03-03T15:41:05.351Z,36.10
2019-03-03T15:43:33.817Z,37.60
2019-03-03T15:46:02.282Z,39.00
2019-03-03T15:48:30.751Z,38.70
2019-03-03T15:50:59.526Z,37.90
2019-03-03T15:53:27.973Z,38.70
2019-03-03T15:55:56.793Z,40.50
2019-03-03T15:58:25.261Z,40.30
2019-03-03T16:00:53.710Z,41.60
2019-03-03T16:03:22.186Z,42.20
2019-03-03T16:05:50.780Z,42.00
2019-03-03T16:08:19.322Z,42.40
2019-03-03T16:10:47.771Z,42.60
2019-03-03T16:13:16.593Z,41.70
2019-03-03T16:15:45.331Z,42.70
2019-03-03T16:18:14.180Z,42.60
2019-03-03T16:20:43.031Z,43.50
2019-03-03T16:23:11.880Z,44.10
2019-03-03T16:25:40.479Z,44.60
2019-03-03T16:28:09.293Z,45.10
2019-03-03T16:30:37.755Z,44.50
2019-03-03T16:33:06.271Z,44.60
2019-03-03T16:35:34.743Z,45.40
2019-03-03T16:38:03.530Z,45.30
2019-03-03T16:40:39.332Z,43.10
2019-03-03T16:43:02.349Z,43.70
2019-03-03T16:45:30.867Z,44.50
2019-03-03T16:47:59.349Z,46.30
2019-03-03T16:50:27.813Z,46.90
2019-03-03T16:52:56.266Z,47.10
2019-03-03T16:55:24.726Z,47.70
2019-03-03T16:57:53.198Z,46.50
2019-03-03T17:00:26.135Z,46.70
2019-03-03T17:02:54.654Z,47.20
2019-03-03T17:05:28.032Z,47.40
2019-03-03T17:07:56.575Z,47.60
2019-03-03T17:10:25.473Z,49.20
2019-03-03T17:12:53.923Z,48.20
2019-03-03T17:15:26.633Z,48.40
2019-03-03T17:17:55.082Z,49.20
2019-03-03T17:20:23.533Z,48.70
2019-03-03T17:22:52.007Z,47.70
2019-03-03T17:25:25.011Z,48.10
2019-03-03T17:27:53.529Z,48.10
2019-03-03T17:30:28.069Z,48.20
2019-03-03T17:32:56.827Z,48.70
2019-03-03T17:35:25.628Z,48.90
2019-03-03T17:37:56.390Z,49.00
2019-03-03T17:40:25.610Z,49.00
2019-03-03T17:42:54.654Z,50.00
2019-03-03T17:45:24.262Z,48.50
2019-03-03T17:47:53.312Z,48.70
2019-03-03T17:50:24.565Z,48.70
2019-03-03T17:52:53.395Z,49.60
2019-03-03T17:55:21.933Z,49.60
2019-03-03T17:57:50.479Z,49.30
2019-03-03T18:00:27.904Z,49.20
2019-03-03T18:02:56.517Z,48.50
2019-03-03T18:05:24.966Z,49.70
2019-03-03T18:07:53.893Z,48.80
2019-03-03T18:10:22.919Z,49.60
2019-03-03T18:12:51.365Z,49.40
2019-03-03T18:15:19.956Z,49.90
2019-03-03T18:17:50.380Z,50.30
2019-03-03T18:20:21.278Z,50.60
2019-03-03T18:22:50.126Z,50.10
2019-03-03T18:25:20.854Z,50.10
2019-03-03T18:27:49.541Z,50.50
2019-03-03T18:30:25.899Z,50.30
2019-03-03T18:32:54.352Z,49.80
2019-03-03T18:35:22.890Z,50.30
2019-03-03T18:37:51.851Z,51.20
2019-03-03T18:40:25.318Z,50.60
2019-03-03T18:42:54.248Z,50.90
2019-03-03T18:45:25.639Z,51.20
2019-03-03T18:47:54.159Z,51.60
2019-03-03T18:50:24.915Z,50.60
2019-03-03T18:52:53.525Z,50.70
2019-03-03T18:55:22.046Z,50.70
2019-03-03T18:57:50.864Z,51.40
2019-03-03T19:00:25.004Z,52.00
2019-03-03T19:02:54.083Z,52.40
2019-03-03T19:05:22.530Z,51.80
2019-03-03T19:07:51.068Z,52.20
2019-03-03T19:10:27.838Z,52.30
2019-03-03T19:12:56.374Z,51.40
2019-03-03T19:15:24.957Z,51.90
2019-03-03T19:17:53.543Z,51.50
2019-03-03T19:20:22.457Z,51.50
2019-03-03T19:22:51.551Z,52.70
2019-03-03T19:25:20.141Z,51.30
2019-03-03T19:27:48.670Z,52.60
2019-03-03T19:30:19.964Z,52.40
2019-03-03T19:32:51.448Z,53.10
2019-03-03T19:35:19.981Z,52.40
2019-03-03T19:37:48.490Z,52.00
2019-03-03T19:40:17.680Z,51.30
2019-03-03T19:42:46.153Z,51.50
2019-03-03T19:45:20.886Z,52.20
2019-03-03T19:47:49.431Z,52.60
2019-03-03T19:50:18.009Z,52.40
2019-03-03T19:52:46.538Z,52.10
2019-03-03T19:55:17.205Z,52.80
2019-03-03T19:57:45.746Z,52.40
2019-03-03T20:00:17.265Z,52.00
2019-03-03T20:02:48.823Z,52.30
2019-03-03T20:05:17.361Z,52.90
2019-03-03T20:07:45.805Z,52.60
2019-03-03T20:10:14.982Z,51.70
2019-03-03T20:12:43.450Z,51.80
2019-03-03T20:15:12.249Z,51.90
2019-03-03T20:17:42.537Z,52.50
2019-03-03T20:20:13.824Z,52.50
2019-03-03T20:22:42.266Z,52.70
2019-03-03T20:25:11.738Z,51.70
2019-03-03T20:27:40.278Z,52.40
2019-03-03T20:30:17.249Z,52.40
2019-03-03T20:32:46.061Z,52.50
2019-03-03T20:35:15.247Z,52.70
2019-03-03T20:37:44.246Z,52.30
2019-03-03T20:40:17.701Z,52.70
2019-03-03T20:42:46.214Z,52.50
2019-03-03T20:45:17.266Z,52.50
2019-03-03T20:47:45.745Z,52.70
2019-03-03T20:50:16.630Z,52.90
2019-03-03T20:52:45.406Z,52.90
2019-03-03T20:55:15.991Z,52.20
2019-03-03T20:57:44.506Z,52.50
2019-03-03T21:00:26.787Z,52.20
2019-03-03T21:02:55.766Z,52.10
2019-03-03T21:05:24.212Z,52.50
2019-03-03T21:07:53.083Z,53.20
2019-03-03T21:10:41.251Z,53.50
2019-03-03T21:13:09.834Z,53.30
2019-03-03T21:15:38.722Z,53.20
2019-03-03T21:18:07.194Z,52.90
2019-03-03T21:20:35.991Z,52.90
2019-03-03T21:23:04.440Z,53.20
2019-03-03T21:25:32.908Z,52.60
2019-03-03T21:28:01.380Z,52.40
2019-03-03T21:30:29.968Z,52.40
2019-03-03T21:32:58.486Z,52.40
2019-03-03T21:35:27.270Z,53.00
2019-03-03T21:37:55.716Z,52.90
2019-03-03T21:40:25.360Z,52.60
2019-03-03T21:42:54.345Z,52.50
2019-03-03T21:45:27.230Z,52.40
2019-03-03T21:47:56.290Z,53.20
2019-03-03T21:50:29.604Z,52.70
2019-03-03T21:52:58.183Z,53.80
2019-03-03T21:55:26.826Z,53.50
2019-03-03T21:57:55.319Z,53.00
2019-03-03T22:00:38.334Z,52.50
2019-03-03T22:03:06.992Z,52.20
2019-03-03T22:05:36.095Z,51.90
2019-03-03T22:08:05.078Z,52.00
2019-03-03T22:10:33.974Z,52.50
2019-03-03T22:13:04.786Z,53.20
2019-03-03T22:15:33.372Z,53.10
2019-03-03T22:18:01.887Z,53.70
2019-03-03T22:20:30.766Z,52.80
2019-03-03T22:23:01.390Z,52.40
2019-03-03T22:25:29.375Z,52.10
2019-03-03T22:27:57.836Z,52.40
2019-03-03T22:30:26.745Z,53.30
2019-03-03T22:32:55.259Z,53.00
2019-03-03T22:35:23.715Z,52.60
2019-03-03T22:37:52.611Z,52.60
2019-03-03T22:40:22.393Z,52.50
2019-03-03T22:42:51.278Z,53.30
2019-03-03T22:45:19.919Z,52.70
2019-03-03T22:47:48.361Z,52.40
2019-03-03T22:50:18.244Z,52.30
2019-03-03T22:52:46.779Z,53.00
2019-03-03T22:55:17.083Z,53.40
2019-03-03T22:57:45.690Z,52.50
2019-03-03T23:00:44.541Z,52.40
2019-03-03T23:03:25.653Z,52.40
2019-03-03T23:06:02.718Z,52.10
2019-03-03T23:08:50.870Z,51.90
2019-03-03T23:11:28.426Z,51.90
2019-03-03T23:14:02.669Z,51.80
2019-03-03T23:16:46.451Z,52.40
2019-03-03T23:19:35.942Z,52.60
2019-03-03T23:22:25.730Z,52.50
2019-03-03T23:25:17.156Z,52.70
2019-03-03T23:27:45.694Z,51.40
2019-03-03T23:30:14.418Z,51.30
2019-03-03T23:32:42.858Z,51.20
2019-03-03T23:35:11.699Z,51.90
2019-03-03T23:37:40.505Z,51.90
2019-03-03T23:40:09.503Z,51.80
2019-03-03T23:42:37.972Z,51.10
2019-03-03T23:45:09.544Z,51.00
2019-03-03T23:47:37.990Z,51.00
2019-03-03T23:50:08.791Z,50.60
2019-03-03T23:52:37.261Z,50.80
2019-03-03T23:55:07.745Z,50.80
2019-03-03T23:57:36.185Z,50.40
